createdAt,value
2022-12-27T00:02:56.653Z,7.50
2022-12-27T00:08:06.484Z,7.49
2022-12-27T00:13:20.000Z,7.41
2022-12-27T00:23:49.699Z,7.33
2022-12-27T00:28:57.331Z,7.34
2022-12-27T00:34:06.019Z,7.31
2022-12-27T00:39:12.400Z,7.32
2022-12-27T00:44:23.332Z,7.20
2022-12-27T00:49:28.847Z,7.18
2022-12-27T00:54:33.744Z,7.16
2022-12-27T00:59:43.896Z,7.12
2022-12-27T01:04:49.495Z,7.09
2022-12-27T01:09:53.685Z,7.05
2022-12-27T01:14:59.960Z,6.94
2022-12-27T01:20:06.327Z,6.82
2022-12-27T01:25:11.401Z,6.72
2022-12-27T01:30:18.281Z,6.57
2022-12-27T01:35:22.889Z,6.40
2022-12-27T01:40:31.868Z,6.24
2022-12-27T01:45:51.195Z,6.09
2022-12-27T01:51:01.795Z,5.97
2022-12-27T01:56:15.010Z,5.88
2022-12-27T02:01:25.599Z,5.80
2022-12-27T02:06:32.596Z,5.68
2022-12-27T02:11:56.804Z,5.61
2022-12-27T02:17:08.295Z,5.55
2022-12-27T02:22:55.468Z,5.52
2022-12-27T02:28:25.344Z,5.46
2022-12-27T02:33:37.719Z,5.36
2022-12-27T02:38:53.005Z,5.29
2022-12-27T02:44:16.987Z,5.20
2022-12-27T02:49:52.014Z,5.13
2022-12-27T02:55:21.230Z,5.04
2022-12-27T03:00:59.473Z,4.96
2022-12-27T03:06:44.419Z,4.92
2022-12-27T03:12:15.546Z,4.82
2022-12-27T03:17:32.503Z,4.74
2022-12-27T03:22:59.423Z,4.68
2022-12-27T03:28:25.666Z,4.62
2022-12-27T03:33:34.845Z,4.61
2022-12-27T03:39:03.793Z,4.60
2022-12-27T03:44:24.558Z,4.66
2022-12-27T03:49:46.404Z,4.86
2022-12-27T03:55:09.352Z,4.92
2022-12-27T04:00:27.587Z,4.96
2022-12-27T04:05:33.940Z,4.90
2022-12-27T04:10:58.993Z,4.94
2022-12-27T04:16:21.946Z,4.95
2022-12-27T04:21:46.743Z,4.81
2022-12-27T04:27:11.930Z,4.69
2022-12-27T04:32:36.055Z,4.61
2022-12-27T04:37:47.760Z,4.54
2022-12-27T04:43:16.164Z,4.48
2022-12-27T04:48:41.061Z,4.44
2022-12-27T04:54:03.342Z,4.41
2022-12-27T04:59:27.109Z,4.39
2022-12-27T05:04:33.083Z,4.39
2022-12-27T05:09:54.772Z,4.42
2022-12-27T05:15:02.585Z,4.44
2022-12-27T05:20:08.758Z,4.42
2022-12-27T05:25:30.645Z,4.41
2022-12-27T05:30:38.834Z,4.45
2022-12-27T05:35:50.296Z,4.46
2022-12-27T05:41:00.616Z,4.47
2022-12-27T05:46:12.232Z,4.47
2022-12-27T05:51:19.249Z,4.47
2022-12-27T05:56:24.990Z,4.46
2022-12-27T06:01:30.128Z,4.44
2022-12-27T06:06:36.450Z,4.43
2022-12-27T06:11:43.837Z,4.44
2022-12-27T06:16:51.861Z,4.47
2022-12-27T06:21:57.573Z,4.46
2022-12-27T06:27:03.544Z,4.47
2022-12-27T06:32:09.446Z,4.46
2022-12-27T06:37:13.930Z,4.45
2022-12-27T06:42:24.502Z,4.46
2022-12-27T06:47:35.641Z,4.54
2022-12-27T06:52:40.314Z,4.94
2022-12-27T06:57:45.224Z,4.84
2022-12-27T07:02:54.515Z,4.85
2022-12-27T07:08:01.478Z,4.78
2022-12-27T07:13:17.592Z,4.75
2022-12-27T07:18:28.282Z,4.71
2022-12-27T07:23:37.323Z,4.68
2022-12-27T07:28:49.326Z,4.70
2022-12-27T07:34:02.083Z,4.89
2022-12-27T07:39:07.551Z,5.07
2022-12-27T07:44:17.312Z,5.22
2022-12-27T07:49:28.734Z,5.35
2022-12-27T07:54:36.131Z,5.44
2022-12-27T07:59:58.789Z,5.48
2022-12-27T08:05:06.835Z,5.41
2022-12-27T08:10:12.259Z,5.41
2022-12-27T08:15:17.232Z,5.45
2022-12-27T08:20:32.201Z,5.52
2022-12-27T08:25:40.895Z,5.59
2022-12-27T08:30:54.320Z,5.66
2022-12-27T08:41:46.340Z,5.88
2022-12-27T08:47:10.173Z,6.01
2022-12-27T08:52:33.365Z,6.14
2022-12-27T08:57:50.816Z,6.19
2022-12-27T09:03:05.430Z,6.20
2022-12-27T09:08:19.216Z,6.29
2022-12-27T09:13:26.522Z,6.44
2022-12-27T09:18:34.899Z,6.58
2022-12-27T09:23:49.931Z,6.73
2022-12-27T09:28:57.124Z,6.88
2022-12-27T09:34:33.468Z,7.04
2022-12-27T09:39:45.045Z,7.20
2022-12-27T09:44:57.667Z,7.30
2022-12-27T09:50:26.799Z,7.41
2022-12-27T09:55:56.764Z,7.63
2022-12-27T10:01:03.205Z,7.68
2022-12-27T10:06:25.044Z,7.73
2022-12-27T10:11:49.150Z,7.87
2022-12-27T10:17:03.162Z,7.94
2022-12-27T10:22:21.216Z,7.96
2022-12-27T10:27:33.906Z,7.90
2022-12-27T10:32:46.697Z,7.89
2022-12-27T10:37:57.718Z,7.94
2022-12-27T10:43:27.158Z,8.00
2022-12-27T10:49:10.926Z,8.11
2022-12-27T10:54:06.479Z,8.15
2022-12-27T10:59:21.728Z,8.18
2022-12-27T11:04:31.433Z,8.22
2022-12-27T11:09:50.406Z,8.31
2022-12-27T11:15:20.758Z,8.41
2022-12-27T11:20:34.048Z,8.35
2022-12-27T11:25:49.047Z,8.38
2022-12-27T11:31:07.667Z,8.30
2022-12-27T11:36:20.340Z,8.37
2022-12-27T11:41:36.404Z,8.49
2022-12-27T11:46:55.513Z,8.48
2022-12-27T11:52:37.027Z,8.52
2022-12-27T11:58:39.121Z,8.51
2022-12-27T12:04:00.680Z,8.60
2022-12-27T12:09:34.717Z,8.78
2022-12-27T12:15:09.715Z,8.86
2022-12-27T12:20:57.824Z,8.92
2022-12-27T12:26:18.447Z,8.98
2022-12-27T12:31:38.596Z,8.96
2022-12-27T12:37:02.673Z,8.95
2022-12-27T12:42:27.588Z,8.96
2022-12-27T12:48:10.936Z,8.99
2022-12-27T12:53:36.502Z,9.03
2022-12-27T12:58:55.178Z,8.99
2022-12-27T13:04:54.330Z,9.01
2022-12-27T13:10:46.777Z,9.17
2022-12-27T13:16:26.153Z,9.43
2022-12-27T13:21:54.525Z,9.59
2022-12-27T13:27:17.178Z,9.64
2022-12-27T13:32:32.634Z,9.68
2022-12-27T13:37:48.620Z,9.54
2022-12-27T13:43:30.977Z,9.33
2022-12-27T13:49:06.226Z,9.19
2022-12-27T13:55:01.989Z,9.05
2022-12-27T14:00:19.405Z,8.94
2022-12-27T14:05:52.473Z,8.85
2022-12-27T14:11:01.100Z,8.73
2022-12-27T14:16:42.858Z,8.57
2022-12-27T14:22:20.854Z,8.42
2022-12-27T14:28:07.321Z,8.31
2022-12-27T14:33:56.243Z,8.20
2022-12-27T14:39:49.679Z,8.13
2022-12-27T14:45:27.216Z,8.03
2022-12-27T14:51:58.308Z,7.93
2022-12-27T14:57:09.809Z,7.83
2022-12-27T15:02:38.016Z,7.74
2022-12-27T15:08:10.569Z,7.67
2022-12-27T15:13:33.142Z,7.61
2022-12-27T15:19:01.153Z,7.53
2022-12-27T15:24:35.567Z,7.41
2022-12-27T15:30:07.482Z,7.33
2022-12-27T15:35:35.587Z,7.27
2022-12-27T15:40:50.670Z,7.17
2022-12-27T15:46:13.733Z,7.13
2022-12-27T15:51:34.748Z,7.09
2022-12-27T15:57:08.259Z,7.04
2022-12-27T16:02:31.299Z,6.99
2022-12-27T16:07:54.391Z,6.93
2022-12-27T16:13:04.643Z,6.86
2022-12-27T16:18:58.112Z,6.85
2022-12-27T16:24:08.720Z,6.78
2022-12-27T16:29:24.229Z,6.78
2022-12-27T16:34:33.903Z,6.76
2022-12-27T16:40:03.927Z,6.77
2022-12-27T16:45:41.887Z,6.81
2022-12-27T16:51:22.634Z,6.80
2022-12-27T16:56:35.680Z,6.75
2022-12-27T17:02:08.145Z,6.74
2022-12-27T17:07:57.824Z,6.74
2022-12-27T17:13:09.968Z,6.73
2022-12-27T17:18:33.772Z,6.80
2022-12-27T17:23:50.648Z,6.86
2022-12-27T17:29:04.193Z,6.92
2022-12-27T17:34:20.478Z,6.98
2022-12-27T17:39:43.192Z,7.05
2022-12-27T17:45:05.137Z,7.08
2022-12-27T17:50:17.623Z,7.11
2022-12-27T17:55:44.209Z,7.15
2022-12-27T18:01:12.639Z,7.15
2022-12-27T18:06:30.109Z,7.14
2022-12-27T18:11:47.502Z,7.13
2022-12-27T18:16:56.193Z,7.16
2022-12-27T18:22:06.471Z,7.14
2022-12-27T18:27:20.739Z,7.15
2022-12-27T18:32:26.913Z,7.14
2022-12-27T18:37:35.714Z,7.13
2022-12-27T18:42:58.571Z,7.10
2022-12-27T18:48:15.278Z,7.09
2022-12-27T18:53:28.149Z,7.13
2022-12-27T18:58:49.086Z,7.13
2022-12-27T19:04:24.045Z,7.10
2022-12-27T19:09:39.645Z,7.03
2022-12-27T19:15:05.281Z,6.99
2022-12-27T19:20:23.580Z,6.94
2022-12-27T19:25:32.692Z,6.86
2022-12-27T19:31:00.576Z,6.79
2022-12-27T19:36:21.218Z,6.73
2022-12-27T19:41:30.736Z,6.69
2022-12-27T19:46:41.740Z,6.62
2022-12-27T19:51:49.558Z,6.57
2022-12-27T19:56:59.714Z,6.58
2022-12-27T20:07:33.894Z,6.47
2022-12-27T20:12:55.151Z,6.38
2022-12-27T20:18:06.695Z,6.33
2022-12-27T20:23:15.266Z,6.27
2022-12-27T20:28:22.213Z,6.20
2022-12-27T20:33:34.508Z,6.12
2022-12-27T20:38:42.003Z,6.13
2022-12-27T20:44:05.067Z,6.10
2022-12-27T20:49:19.276Z,6.06
2022-12-27T20:54:23.409Z,5.98
2022-12-27T20:59:31.828Z,5.96
2022-12-27T21:04:44.362Z,5.90
2022-12-27T21:09:58.435Z,5.88
2022-12-27T21:15:03.808Z,5.82
2022-12-27T21:20:16.755Z,5.86
2022-12-27T21:25:32.087Z,5.88
2022-12-27T21:30:38.338Z,5.96
2022-12-27T21:35:46.035Z,6.02
2022-12-27T21:41:00.646Z,6.07
2022-12-27T21:46:11.549Z,6.10
2022-12-27T21:51:20.969Z,6.13
2022-12-27T21:56:30.391Z,6.16
2022-12-27T22:01:51.292Z,6.17
2022-12-27T22:07:03.154Z,6.18
2022-12-27T22:12:10.393Z,6.21
2022-12-27T22:17:14.523Z,6.24
2022-12-27T22:22:20.577Z,6.26
2022-12-27T22:27:25.499Z,6.28
2022-12-27T22:32:35.442Z,6.33
2022-12-27T22:37:43.271Z,6.39
2022-12-27T22:42:49.865Z,6.44
2022-12-27T22:47:54.609Z,6.48
2022-12-27T22:53:10.432Z,6.53
2022-12-27T22:58:20.108Z,6.54
2022-12-27T23:03:27.593Z,6.53
2022-12-27T23:08:35.594Z,6.52
2022-12-27T23:13:40.712Z,6.57
2022-12-27T23:18:52.661Z,6.58
2022-12-27T23:24:03.504Z,6.57
2022-12-27T23:29:10.323Z,6.58
2022-12-27T23:34:15.817Z,6.63
2022-12-27T23:39:27.729Z,6.61
2022-12-27T23:44:34.256Z,6.61
2022-12-27T23:49:39.984Z,6.63
2022-12-27T23:54:55.223Z,6.64
